Time;durP1;ratioP1;P1;durP2;ratioP2;P2;SDS_P1;SDS_P2;PMS_P1;PMS_P2;Temp;Humidity;BMP_temperature;BMP_pressure;BME280_temperature;BME280_humidity;BME280_pressure;Samples;Min_cycle;Max_cycle;Signal;HPM_P1;HPM_P2
2022/06/23 00:02:02;;;;;;;4.82;1.90;;;18.40;99.90;;;;;;4980109;28;20118;-69
2022/06/23 00:04:33;;;;;;;4.32;2.10;;;18.90;99.90;;;;;;4983957;28;20042;-69
2022/06/23 00:07:06;;;;;;;2.67;1.83;;;18.60;99.90;;;;;;4983709;28;20038;-68
2022/06/23 00:09:47;;;;;;;3.28;1.65;;;19.20;99.90;;;;;;4983740;28;20027;-69
2022/06/23 00:12:19;;;;;;;2.85;1.90;;;19.00;99.90;;;;;;4983366;28;20065;-68
2022/06/23 00:15:04;;;;;;;5.40;2.30;;;18.50;99.90;;;;;;4980591;28;20037;-69
2022/06/23 00:17:43;;;;;;;1.88;1.70;;;18.30;99.90;;;;;;4968212;28;20518;-69
2022/06/23 00:20:53;;;;;;;3.92;1.80;;;18.40;99.90;;;;;;4991273;28;20387;-69
2022/06/23 00:23:24;;;;;;;4.05;2.25;;;18.30;99.90;;;;;;4913644;28;20048;-67
2022/06/23 00:25:58;;;;;;;3.42;1.92;;;18.10;99.90;;;;;;4911459;29;20032;-69
2022/06/23 00:28:33;;;;;;;4.18;2.10;;;18.30;99.90;;;;;;4910964;29;20048;-68
2022/06/23 00:31:03;;;;;;;3.55;2.10;;;18.20;99.90;;;;;;4910692;29;20040;-69
2022/06/23 00:33:39;;;;;;;6.88;1.98;;;18.50;99.90;;;;;;4910611;29;20040;-69
2022/06/23 00:36:30;;;;;;;5.25;2.17;;;18.70;99.90;;;;;;4911211;29;20036;-69
2022/06/23 00:38:56;;;;;;;5.78;2.20;;;18.40;99.90;;;;;;4900265;29;20065;-69
2022/06/23 00:41:32;;;;;;;3.50;1.92;;;18.60;99.90;;;;;;4913976;29;20100;-70
2022/06/23 00:44:06;;;;;;;2.80;1.83;;;18.70;99.90;;;;;;4911343;29;20032;-69
2022/06/23 00:46:43;;;;;;;3.17;2.05;;;18.50;99.90;;;;;;4904258;29;20045;-68
2022/06/23 00:49:32;;;;;;;3.17;2.47;;;18.30;99.90;;;;;;4904164;29;20046;-68
2022/06/23 00:52:16;;;;;;;6.40;2.40;;;17.80;99.90;;;;;;4903944;29;20565;-67
2022/06/23 00:54:45;;;;;;;4.50;2.28;;;18.00;99.90;;;;;;4903897;29;20029;-68
2022/06/23 00:57:23;;;;;;;4.10;2.10;;;18.50;99.90;;;;;;4903821;29;20052;-68
2022/06/23 01:00:00;;;;;;;4.20;2.35;;;18.20;99.90;;;;;;4945151;28;20403;-68
2022/06/23 01:02:38;;;;;;;5.22;2.42;;;18.30;99.90;;;;;;4978034;28;20061;-69
2022/06/23 01:05:13;;;;;;;4.07;2.42;;;18.30;99.90;;;;;;4990139;28;20480;-69
2022/06/23 01:07:42;;;;;;;2.70;2.03;;;18.70;99.90;;;;;;4989211;28;20110;-67
2022/06/23 01:10:35;;;;;;;5.88;2.40;;;18.50;99.90;;;;;;4989056;28;20054;-69
2022/06/23 01:13:14;;;;;;;4.38;2.35;;;18.60;99.90;;;;;;4988916;28;20037;-68
2022/06/23 01:15:49;;;;;;;4.07;2.70;;;18.60;99.90;;;;;;4988773;28;20062;-69
2022/06/23 01:18:20;;;;;;;3.38;2.78;;;18.10;99.90;;;;;;4979322;28;20506;-69
2022/06/23 01:21:00;;;;;;;4.25;2.97;;;17.80;99.90;;;;;;4991734;28;20042;-69
2022/06/23 01:23:50;;;;;;;3.35;2.60;;;17.60;99.90;;;;;;4992397;28;20038;-68
2022/06/23 01:26:16;;;;;;;3.92;3.10;;;17.30;99.90;;;;;;4991022;28;20027;-69
2022/06/23 01:28:42;;;;;;;3.20;2.50;;;17.20;99.90;;;;;;4988882;28;20129;-70
2022/06/23 01:31:14;;;;;;;3.67;2.70;;;17.30;99.90;;;;;;4988601;28;20030;-69
2022/06/23 01:33:45;;;;;;;5.28;2.90;;;17.10;99.90;;;;;;4988608;28;20034;-68
2022/06/23 01:36:14;;;;;;;4.40;2.90;;;17.00;99.90;;;;;;4988813;28;20109;-69
2022/06/23 01:38:54;;;;;;;3.85;3.20;;;17.30;99.90;;;;;;4992225;28;20034;-69
2022/06/23 01:41:22;;;;;;;5.60;2.75;;;17.30;99.90;;;;;;4991305;28;20074;-68
2022/06/23 01:44:32;;;;;;;4.93;3.40;;;17.60;99.90;;;;;;4979656;28;20473;-69
2022/06/23 01:47:00;;;;;;;3.83;2.75;;;17.40;99.90;;;;;;4978139;28;20068;-69
2022/06/23 01:49:38;;;;;;;3.60;3.10;;;17.30;99.90;;;;;;4982234;28;20034;-69
2022/06/23 01:52:15;;;;;;;5.03;2.80;;;17.60;99.90;;;;;;4981584;28;20038;-67
2022/06/23 01:54:41;;;;;;;5.07;3.17;;;17.70;99.90;;;;;;4981746;28;20025;-68
2022/06/23 01:57:25;;;;;;;5.72;2.88;;;17.60;99.90;;;;;;4976772;28;20428;-68
2022/06/23 02:00:07;;;;;;;8.02;3.33;;;17.10;99.90;;;;;;4990405;28;20023;-69
2022/06/23 02:02:58;;;;;;;5.90;3.20;;;16.80;99.90;;;;;;4977747;28;20435;-69
2022/06/23 02:05:27;;;;;;;6.25;2.80;;;16.60;99.90;;;;;;4991500;28;20045;-70
2022/06/23 02:08:00;;;;;;;3.78;2.88;;;17.60;99.90;;;;;;4989133;28;20026;-69
2022/06/23 02:10:52;;;;;;;;;;;17.80;99.90;;;;;;4988217;28;20038;-69
2022/06/23 02:13:54;;;;;;;4.03;3.00;;;17.40;99.90;;;;;;4984909;28;19909;-68
2022/06/23 02:16:42;;;;;;;5.88;3.13;;;16.70;99.90;;;;;;4927962;29;20051;-69
2022/06/23 02:19:36;;;;;;;5.63;3.90;;;16.50;99.90;;;;;;4928074;28;20036;-70
2022/06/23 02:22:34;;;;;;;4.20;3.60;;;16.90;99.90;;;;;;4932034;29;20023;-68
2022/06/23 02:25:20;;;;;;;3.97;3.28;;;16.60;99.90;;;;;;4917896;29;20042;-69
2022/06/23 02:28:04;;;;;;;4.25;3.47;;;16.50;99.90;;;;;;4927588;29;20617;-69
2022/06/23 02:30:33;;;;;;;;;;;16.40;99.90;;;;;;4928512;29;20036;-68
2022/06/23 02:33:23;;;;;;;5.32;3.30;;;16.80;99.90;;;;;;4928389;29;19915;-68
2022/06/23 02:35:57;;;;;;;7.22;3.60;;;16.50;99.90;;;;;;4929861;29;20028;-69
2022/06/23 02:38:31;;;;;;;4.20;2.90;;;16.40;99.90;;;;;;4931073;29;20103;-68
2022/06/23 02:41:02;;;;;;;7.22;3.20;;;16.70;99.90;;;;;;4928076;29;20036;-69
2022/06/23 02:43:49;;;;;;;5.15;3.20;;;17.10;99.90;;;;;;4927857;29;20047;-69
2022/06/23 02:46:36;;;;;;;4.72;3.40;;;16.50;99.90;;;;;;4927933;29;20078;-69
2022/06/23 02:49:16;;;;;;;3.78;3.00;;;17.00;99.90;;;;;;4915935;29;20517;-69
2022/06/23 02:52:22;;;;;;;7.63;3.92;;;17.40;99.90;;;;;;4951452;28;20046;-69
2022/06/23 02:55:10;;;;;;;4.70;3.22;;;17.20;99.90;;;;;;4987464;28;20564;-68
2022/06/23 02:57:39;;;;;;;5.13;4.30;;;17.30;99.90;;;;;;4987310;28;20061;-68
2022/06/23 03:00:23;;;;;;;3.65;3.30;;;17.30;99.90;;;;;;4991859;28;20030;-69
2022/06/23 03:02:52;;;;;;;6.35;4.30;;;17.60;99.90;;;;;;4979187;28;20052;-69
2022/06/23 03:05:28;;;;;;;4.40;3.50;;;17.20;99.90;;;;;;4976248;28;20026;-69
2022/06/23 03:08:04;;;;;;;6.18;3.78;;;17.10;99.90;;;;;;4977806;28;20031;-67
2022/06/23 03:11:04;;;;;;;5.95;3.65;;;17.20;99.90;;;;;;4980141;28;20122;-69
2022/06/23 03:13:37;;;;;;;6.43;3.97;;;17.30;99.90;;;;;;4980104;28;20059;-68
2022/06/23 03:16:11;;;;;;;5.73;3.93;;;17.40;99.90;;;;;;4984214;28;20027;-69
2022/06/23 03:19:02;;;;;;;5.13;3.25;;;17.00;99.90;;;;;;4987221;28;20077;-69
2022/06/23 03:21:51;;;;;;;7.97;4.10;;;17.70;99.90;;;;;;4987246;28;20052;-69
2022/06/23 03:24:23;;;;;;;4.97;3.60;;;17.90;99.90;;;;;;4986817;28;20046;-69
2022/06/23 03:27:12;;;;;;;3.92;3.20;;;17.40;99.90;;;;;;4989600;28;20469;-69
2022/06/23 03:29:49;;;;;;;6.25;3.33;;;17.60;99.90;;;;;;4972453;28;20048;-69
2022/06/23 03:32:28;;;;;;;6.22;3.90;;;18.20;99.90;;;;;;4990138;28;20053;-68
2022/06/23 03:35:22;;;;;;;3.95;2.95;;;18.40;99.90;;;;;;4976943;28;20034;-69
2022/06/23 03:38:02;;;;;;;3.42;2.83;;;18.80;99.90;;;;;;4976417;28;20137;-67
2022/06/23 03:43:33;;;;;;;4.07;3.47;;;18.40;99.90;;;;;;4986862;28;20041;-68
2022/06/23 03:46:25;;;;;;;5.15;3.55;;;18.30;99.90;;;;;;4987055;28;20034;-68
2022/06/23 03:48:58;;;;;;;4.15;3.75;;;18.50;99.90;;;;;;4987147;28;20036;-69
2022/06/23 03:51:35;;;;;;;5.53;4.32;;;18.10;99.90;;;;;;4988473;28;20042;-69
2022/06/23 03:54:39;;;;;;;4.82;3.83;;;17.60;99.90;;;;;;4983163;28;20105;-69
2022/06/23 03:57:16;;;;;;;5.65;4.72;;;17.50;99.90;;;;;;4967132;28;20097;-69
2022/06/23 04:00:04;;;;;;;5.82;3.22;;;17.80;99.90;;;;;;4979893;28;20026;-68
2022/06/23 04:02:39;;;;;;;6.18;3.78;;;18.10;99.90;;;;;;4979108;28;20450;-69
2022/06/23 04:05:21;;;;;;;5.10;3.53;;;18.00;99.90;;;;;;4991600;28;20023;-69
2022/06/23 04:07:54;;;;;;;5.40;3.42;;;18.30;99.90;;;;;;4979667;28;20411;-69
2022/06/23 04:10:29;;;;;;;5.93;4.47;;;18.90;99.90;;;;;;4983683;28;20027;-69
2022/06/23 04:13:01;;;;;;;6.47;4.53;;;18.30;99.90;;;;;;4983902;28;20413;-69
2022/06/23 04:15:31;;;;;;;5.20;3.97;;;18.00;99.90;;;;;;4983699;28;20404;-69
2022/06/23 04:18:06;;;;;;;5.82;3.97;;;18.60;99.90;;;;;;4982324;28;20026;-69
2022/06/23 04:20:58;;;;;;;6.78;3.90;;;18.30;99.90;;;;;;4979056;28;20117;-69
2022/06/23 04:23:36;;;;;;;6.10;4.22;;;18.40;99.90;;;;;;4915365;29;20151;-68
2022/06/23 04:26:12;;;;;;;4.03;3.33;;;18.00;99.90;;;;;;4916145;29;20562;-69
2022/06/23 04:28:48;;;;;;;5.05;4.13;;;18.40;99.90;;;;;;4915139;29;20048;-69
2022/06/23 04:31:35;;;;;;;5.78;4.45;;;18.20;99.90;;;;;;4915259;29;20078;-69
2022/06/23 04:34:01;;;;;;;5.53;4.90;;;18.00;99.90;;;;;;4915450;29;20479;-69
2022/06/23 04:36:31;;;;;;;5.20;4.35;;;18.10;99.90;;;;;;4914912;29;20072;-68
2022/06/23 04:39:08;;;;;;;5.05;4.43;;;18.00;99.90;;;;;;4915058;29;20032;-69
2022/06/23 04:41:48;;;;;;;4.28;3.83;;;18.40;99.90;;;;;;4900603;29;20040;-69
2022/06/23 04:44:31;;;;;;;5.88;3.70;;;18.40;99.90;;;;;;4915041;29;20104;-69
2022/06/23 04:47:11;;;;;;;5.63;4.22;;;18.10;99.90;;;;;;4915314;29;20098;-69
2022/06/23 04:50:01;;;;;;;6.05;4.30;;;17.90;99.90;;;;;;4914239;29;20036;-69
2022/06/23 04:52:50;;;;;;;6.25;4.72;;;17.90;99.90;;;;;;4914151;29;20187;-69
2022/06/23 04:55:23;;;;;;;5.80;4.78;;;17.70;99.90;;;;;;4914655;29;20050;-69
2022/06/23 04:58:14;;;;;;;4.03;3.58;;;17.90;99.90;;;;;;4914670;29;20028;-70
2022/06/23 05:00:42;;;;;;;8.13;4.78;;;17.90;99.90;;;;;;4964549;28;20030;-69
2022/06/23 05:03:22;;;;;;;4.30;3.83;;;17.90;99.90;;;;;;4982496;28;20041;-69
2022/06/23 05:06:11;;;;;;;4.25;3.78;;;18.20;99.90;;;;;;4980132;28;20105;-69
2022/06/23 05:08:41;;;;;;;5.78;4.50;;;18.10;99.90;;;;;;4979029;28;20525;-68
2022/06/23 05:11:10;;;;;;;5.45;4.45;;;18.20;99.90;;;;;;4978168;28;20038;-69
2022/06/23 05:13:53;;;;;;;6.43;4.32;;;18.10;99.90;;;;;;4988790;28;20022;-67
2022/06/23 05:16:41;;;;;;;6.38;3.42;;;18.30;99.90;;;;;;4988740;28;20089;-69
2022/06/23 05:19:29;;;;;;;6.82;4.45;;;18.70;99.90;;;;;;4988766;28;20109;-69
2022/06/23 05:22:00;;;;;;;5.88;3.63;;;18.60;99.90;;;;;;4988424;28;20440;-68
2022/06/23 05:24:35;;;;;;;7.38;4.35;;;18.60;99.90;;;;;;4988716;28;20093;-68
2022/06/23 05:27:24;;;;;;;6.38;4.07;;;18.60;99.90;;;;;;4989364;28;20027;-70
2022/06/23 05:30:11;;;;;;;5.20;4.03;;;18.30;99.90;;;;;;4978222;28;20026;-69
2022/06/23 05:32:45;;;;;;;6.32;4.68;;;18.20;99.90;;;;;;4976754;28;20181;-69
2022/06/23 05:35:22;;;;;;;8.02;4.82;;;18.30;99.90;;;;;;4977669;28;20408;-70
2022/06/23 05:38:03;;;;;;;7.68;4.72;;;18.40;99.90;;;;;;4978337;28;20039;-68
2022/06/23 05:40:47;;;;;;;7.00;4.00;;;18.40;99.90;;;;;;4988621;28;20039;-70
2022/06/23 05:43:14;;;;;;;6.45;4.25;;;18.60;99.90;;;;;;4988475;28;20026;-69
2022/06/23 05:45:48;;;;;;;11.35;4.57;;;18.80;99.90;;;;;;4988655;28;20054;-71
2022/06/23 05:48:31;;;;;;;8.25;4.10;;;19.00;99.90;;;;;;4991451;28;20034;-70
2022/06/23 05:51:04;;;;;;;7.75;3.58;;;19.10;99.90;;;;;;4980082;28;20022;-70
2022/06/23 05:53:35;;;;;;;;;;;19.60;99.90;;;;;;4978057;28;20092;-68
2022/06/23 05:56:20;;;;;;;5.22;3.45;;;19.20;99.90;;;;;;4989416;28;20063;-69
2022/06/23 05:59:10;;;;;;;5.57;3.55;;;19.40;99.90;;;;;;4978047;28;20043;-68
2022/06/23 06:01:43;;;;;;;6.82;4.07;;;19.30;99.90;;;;;;4987635;28;20380;-69
2022/06/23 06:04:30;;;;;;;5.57;3.50;;;19.10;99.90;;;;;;4988192;28;20411;-69
2022/06/23 06:06:57;;;;;;;4.32;3.92;;;19.60;99.90;;;;;;4988188;28;20065;-69
2022/06/23 06:09:37;;;;;;;6.82;3.75;;;19.60;99.90;;;;;;4988107;28;20037;-69
2022/06/23 06:12:43;;;;;;;3.90;3.42;;;19.70;99.90;;;;;;4988266;28;20038;-70
2022/06/23 06:15:23;;;;;;;4.50;3.38;;;19.60;99.90;;;;;;4915901;29;20028;-69
2022/06/23 06:17:52;;;;;;;4.68;3.20;;;19.50;99.90;;;;;;4916217;29;20394;-68
2022/06/23 06:20:25;;;;;;;4.72;3.10;;;19.60;99.90;;;;;;4914296;29;20490;-69
2022/06/23 06:23:08;;;;;;;5.75;3.55;;;19.60;99.90;;;;;;4914677;29;20478;-68
2022/06/23 06:25:44;;;;;;;3.80;3.20;;;19.90;99.90;;;;;;4927405;29;20118;-69
2022/06/23 06:28:15;;;;;;;9.52;3.40;;;20.00;99.90;;;;;;4929291;29;20055;-69
2022/06/23 06:31:06;;;;;;;6.00;3.05;;;20.10;99.90;;;;;;4921558;29;20434;-69
2022/06/23 06:33:43;;;;;;;3.88;2.85;;;20.20;99.90;;;;;;4911002;29;20553;-69
2022/06/23 06:36:26;;;;;;;5.13;2.90;;;21.20;99.90;;;;;;4920486;29;20088;-69
2022/06/23 06:38:58;;;;;;;4.00;3.05;;;21.60;99.90;;;;;;4923547;29;20119;-68
2022/06/23 06:41:24;;;;;;;4.57;2.90;;;21.80;99.90;;;;;;4921580;29;20028;-68
2022/06/23 06:43:51;;;;;;;3.92;2.60;;;21.90;99.90;;;;;;4925543;29;20040;-70
2022/06/23 06:46:16;;;;;;;3.33;2.70;;;22.20;99.90;;;;;;4925100;29;20032;-69
2022/06/23 06:48:43;;;;;;;4.25;2.33;;;22.10;99.90;;;;;;4942760;28;20061;-68
2022/06/23 06:51:20;;;;;;;5.20;2.80;;;22.40;99.90;;;;;;4983955;28;20039;-70
2022/06/23 06:53:58;;;;;;;4.13;2.80;;;21.80;99.90;;;;;;4984932;28;20035;-69
2022/06/23 06:56:53;;;;;;;5.60;3.10;;;21.70;99.90;;;;;;4983117;28;20050;-70
2022/06/23 06:59:38;;;;;;;3.65;2.55;;;21.60;99.90;;;;;;4977042;28;20039;-69
2022/06/23 07:02:13;;;;;;;4.93;2.70;;;21.30;99.90;;;;;;4983117;28;20103;-70
2022/06/23 07:04:49;;;;;;;5.18;3.00;;;21.60;99.90;;;;;;4980411;28;20030;-68
2022/06/23 07:07:21;;;;;;;4.68;2.67;;;22.10;99.90;;;;;;4981071;28;20027;-68
2022/06/23 07:10:11;;;;;;;4.85;2.78;;;22.40;99.90;;;;;;4981820;28;20022;-69
2022/06/23 07:12:53;;;;;;;8.20;3.20;;;22.00;99.90;;;;;;4987132;28;20034;-69
2022/06/23 07:15:27;;;;;;;6.60;2.70;;;22.00;99.90;;;;;;4986887;28;20090;-68
2022/06/23 07:18:14;;;;;;;4.15;2.50;;;21.80;99.90;;;;;;4987646;28;20034;-68
2022/06/23 07:20:58;;;;;;;5.53;2.83;;;21.60;99.90;;;;;;4976562;28;20026;-68
2022/06/23 07:23:34;;;;;;;5.05;2.60;;;21.20;99.90;;;;;;4990667;28;20039;-69
2022/06/23 07:26:26;;;;;;;3.55;2.45;;;21.20;99.90;;;;;;4988224;28;20360;-68
2022/06/23 07:28:57;;;;;;;5.45;2.40;;;21.10;99.90;;;;;;4883425;29;20041;-69
2022/06/23 07:31:36;;;;;;;7.47;3.03;;;21.60;99.90;;;;;;4886595;29;20057;-69
2022/06/23 07:34:08;;;;;;;4.93;2.38;;;22.10;99.90;;;;;;4886892;29;20029;-69
2022/06/23 07:36:41;;;;;;;3.95;2.30;;;21.60;99.90;;;;;;4886536;29;20033;-69
2022/06/23 07:39:41;;;;;;;4.07;2.40;;;21.40;99.90;;;;;;4886412;29;20418;-69
2022/06/23 07:42:38;;;;;;;4.68;2.80;;;21.20;99.90;;;;;;4883532;29;20043;-69
2022/06/23 07:45:16;;;;;;;5.60;2.45;;;20.90;99.90;;;;;;4885948;29;20028;-68
2022/06/23 07:47:42;;;;;;;4.50;2.67;;;21.00;99.90;;;;;;4883468;29;20112;-68
2022/06/23 07:50:10;;;;;;;5.15;2.50;;;20.90;99.90;;;;;;4882096;29;20141;-68
2022/06/23 07:52:35;;;;;;;4.80;2.60;;;20.90;99.90;;;;;;4897171;29;20440;-68
2022/06/23 07:55:03;;;;;;;5.88;2.50;;;20.90;99.90;;;;;;4889635;29;20506;-68
2022/06/23 07:57:31;;;;;;;4.93;2.50;;;20.80;99.90;;;;;;4885796;29;20044;-68
2022/06/23 08:00:01;;;;;;;5.32;2.40;;;20.80;99.90;;;;;;4885063;29;20037;-68
2022/06/23 08:02:34;;;;;;;2.75;2.30;;;20.90;99.90;;;;;;4866219;29;20052;-68
2022/06/23 08:05:03;;;;;;;3.58;2.10;;;20.70;99.90;;;;;;4915745;28;20404;-68
2022/06/23 08:07:30;;;;;;;4.15;2.22;;;21.10;99.90;;;;;;4990586;28;20479;-68
2022/06/23 08:10:00;;;;;;;4.70;2.50;;;21.20;99.90;;;;;;4990012;28;20045;-68
2022/06/23 08:18:08;;;;;;;5.65;2.70;;;20.70;99.90;;;;;;4990722;28;20120;-68
2022/06/23 08:20:38;;;;;;;5.28;2.95;;;20.20;99.90;;;;;;4979384;28;20113;-68
2022/06/23 08:23:05;;;;;;;4.85;2.60;;;20.00;99.90;;;;;;4991043;28;20407;-68
2022/06/23 08:25:30;;;;;;;4.97;2.75;;;19.80;99.90;;;;;;4983264;28;20027;-68
2022/06/23 08:27:58;;;;;;;4.18;2.72;;;20.30;99.90;;;;;;4982950;28;20114;-69
2022/06/23 08:30:26;;;;;;;4.53;2.35;;;21.00;99.90;;;;;;4983292;28;20050;-68
2022/06/23 08:32:53;;;;;;;5.13;2.53;;;21.60;99.90;;;;;;4981368;28;20026;-68
2022/06/23 08:35:36;;;;;;;4.15;2.38;;;23.00;99.90;;;;;;4978647;28;20061;-69
2022/06/23 08:38:26;;;;;;;4.90;2.30;;;25.10;99.90;;;;;;4990564;28;20065;-69
2022/06/23 08:40:59;;;;;;;3.20;2.00;;;26.10;99.90;;;;;;4900993;29;20051;-69
2022/06/23 08:43:30;;;;;;;4.22;2.13;;;25.50;99.90;;;;;;4904341;29;20043;-69
2022/06/23 08:46:11;;;;;;;4.18;2.13;;;27.20;99.90;;;;;;4904256;29;20383;-70
2022/06/23 08:48:45;;;;;;;3.60;1.90;;;28.90;99.90;;;;;;4904318;29;20032;-70
2022/06/23 08:51:59;;;;;;;3.22;2.00;;;29.20;99.90;;;;;;4904118;28;20132;-70
2022/06/23 08:54:49;;;;;;;3.60;2.00;;;30.20;99.90;;;;;;4904181;29;20043;-69
2022/06/23 08:57:20;;;;;;;2.80;2.10;;;31.00;98.70;;;;;;4903688;29;20087;-69
2022/06/23 09:00:07;;;;;;;3.92;1.98;;;30.10;99.20;;;;;;4901454;29;20060;-69
2022/06/23 09:02:50;;;;;;;3.35;2.08;;;28.10;99.90;;;;;;4899848;29;20032;-69
2022/06/23 09:05:34;;;;;;;3.83;2.10;;;29.40;99.70;;;;;;4912697;29;20036;-69
2022/06/23 09:08:24;;;;;;;4.18;1.95;;;28.90;99.90;;;;;;4896398;29;20044;-69
2022/06/23 09:11:04;;;;;;;2.03;1.60;;;28.90;99.90;;;;;;4901102;29;20052;-69
2022/06/23 09:13:54;;;;;;;2.45;1.85;;;30.80;98.80;;;;;;4903563;29;20391;-69
2022/06/23 09:16:19;;;;;;;3.05;1.77;;;31.70;97.40;;;;;;4903592;29;20116;-68
2022/06/23 09:19:22;;;;;;;4.20;1.90;;;31.40;96.90;;;;;;4967947;28;20126;-69
2022/06/23 09:22:00;;;;;;;5.05;2.20;;;31.10;97.30;;;;;;4982108;28;20117;-69
2022/06/23 09:25:01;;;;;;;2.67;1.75;;;30.10;98.20;;;;;;4981839;28;20035;-69
2022/06/23 09:27:48;;;;;;;5.18;1.83;;;30.10;99.30;;;;;;4982414;28;20054;-69
2022/06/23 09:30:28;;;;;;;2.13;1.60;;;30.10;97.80;;;;;;4982349;28;20026;-69
2022/06/23 09:33:25;;;;;;;2.60;1.83;;;28.20;98.70;;;;;;4980592;28;20130;-68
2022/06/23 09:36:33;;;;;;;4.60;1.90;;;29.70;98.50;;;;;;4977639;28;20089;-68
2022/06/23 09:39:20;;;;;;;2.30;1.77;;;29.20;99.10;;;;;;4956210;28;20039;-68
2022/06/23 09:41:55;;;;;;;3.80;1.73;;;27.90;99.90;;;;;;4956158;28;20431;-68
2022/06/23 09:44:51;;;;;;;3.45;1.85;;;30.60;98.50;;;;;;4969872;28;20034;-69
2022/06/23 09:47:25;;;;;;;2.97;1.90;;;30.30;98.40;;;;;;4971437;28;20027;-69
2022/06/23 09:49:57;;;;;;;5.07;2.00;;;29.00;99.30;;;;;;4957059;28;20027;-68
2022/06/23 09:52:35;;;;;;;4.95;1.90;;;29.10;99.40;;;;;;4965955;28;20048;-69
2022/06/23 09:55:09;;;;;;;3.78;2.00;;;27.80;99.90;;;;;;4970458;28;20035;-68
2022/06/23 09:57:53;;;;;;;4.75;1.88;;;26.90;99.90;;;;;;4966845;28;20118;-69
2022/06/23 10:00:25;;;;;;;2.65;1.90;;;27.70;99.90;;;;;;4970760;28;20030;-68
2022/06/23 10:03:15;;;;;;;3.95;2.00;;;28.20;99.90;;;;;;4968634;28;20058;-69
2022/06/23 10:05:44;;;;;;;3.78;2.00;;;27.20;99.90;;;;;;4970926;28;20128;-68
2022/06/23 10:08:21;;;;;;;3.17;2.15;;;27.20;99.90;;;;;;4970645;28;20548;-68
2022/06/23 10:11:37;;;;;;;3.05;2.00;;;28.60;99.90;;;;;;4967311;28;20046;-68
2022/06/23 10:14:30;;;;;;;2.90;1.83;;;27.80;99.90;;;;;;4884817;29;20041;-68
2022/06/23 10:17:02;;;;;;;3.90;2.03;;;27.80;99.90;;;;;;4880402;29;20044;-68
2022/06/23 10:19:33;;;;;;;3.45;1.95;;;27.20;99.90;;;;;;4883748;29;20033;-69
2022/06/23 10:22:02;;;;;;;3.85;2.20;;;27.20;99.90;;;;;;4883978;29;20029;-68
2022/06/23 10:24:33;;;;;;;4.95;2.20;;;27.50;99.90;;;;;;4883394;29;20041;-68
2022/06/23 10:27:35;;;;;;;5.88;2.40;;;26.70;99.90;;;;;;4883032;29;20029;-68
2022/06/23 10:30:13;;;;;;;3.45;2.05;;;26.80;99.90;;;;;;4890780;29;20052;-68
2022/06/23 10:32:39;;;;;;;2.85;2.08;;;27.20;99.90;;;;;;4879664;29;20540;-68
2022/06/23 10:35:33;;;;;;;4.25;2.30;;;26.60;99.90;;;;;;4891426;29;20041;-67
2022/06/23 10:38:18;;;;;;;4.28;2.08;;;26.40;99.90;;;;;;4890370;29;20072;-67
2022/06/23 10:40:47;;;;;;;2.50;1.80;;;26.50;99.90;;;;;;4880118;29;20061;-67
2022/06/23 10:43:15;;;;;;;2.40;1.98;;;27.20;99.90;;;;;;4883978;29;20045;-68
2022/06/23 10:45:58;;;;;;;3.05;2.10;;;27.20;99.90;;;;;;4883593;29;20029;-68
2022/06/23 10:48:59;;;;;;;3.35;1.98;;;27.90;99.90;;;;;;4892423;29;20056;-68
2022/06/23 10:51:40;;;;;;;3.05;1.95;;;27.30;99.90;;;;;;4961222;28;20046;-67
2022/06/23 10:54:27;;;;;;;3.75;2.00;;;27.70;99.90;;;;;;4961342;28;20113;-68
2022/06/23 10:57:17;;;;;;;2.28;1.60;;;27.20;99.90;;;;;;4975609;28;20050;-67
2022/06/23 10:59:54;;;;;;;3.30;2.10;;;27.70;99.90;;;;;;4978290;28;20114;-67
2022/06/23 11:02:45;;;;;;;2.88;2.08;;;26.90;99.90;;;;;;4978607;28;20484;-67
2022/06/23 11:05:40;;;;;;;2.90;2.20;;;26.00;99.90;;;;;;4993163;28;20034;-68
2022/06/23 11:08:30;;;;;;;3.03;2.20;;;25.90;99.90;;;;;;4992373;28;20565;-67
2022/06/23 11:11:22;;;;;;;2.95;2.10;;;25.70;99.90;;;;;;4980893;28;20049;-67
2022/06/23 11:14:18;;;;;;;3.95;2.00;;;25.40;99.90;;;;;;4980916;28;20023;-67
2022/06/23 11:17:12;;;;;;;2.88;2.13;;;25.50;99.90;;;;;;4980925;28;20046;-67
2022/06/23 11:20:05;;;;;;;3.15;2.10;;;25.00;99.90;;;;;;4990876;28;20399;-67
2022/06/23 11:22:42;;;;;;;2.10;1.90;;;25.00;99.90;;;;;;4991029;28;20701;-67
2022/06/23 11:25:20;;;;;;;11.93;3.28;;;24.80;99.90;;;;;;4991287;28;20403;-68
2022/06/23 11:28:14;;;;;;;3.10;2.63;;;24.50;99.90;;;;;;4991008;28;20038;-68
2022/06/23 11:31:06;;;;;;;7.25;3.60;;;24.20;99.90;;;;;;4990843;28;20089;-68
2022/06/23 11:33:41;;;;;;;3.15;2.47;;;23.80;99.90;;;;;;4983874;28;20034;-68
2022/06/23 11:36:24;;;;;;;4.70;3.15;;;24.20;99.90;;;;;;4990799;28;20031;-68
2022/06/23 11:38:59;;;;;;;4.28;2.72;;;24.70;99.90;;;;;;4995182;28;20032;-69
2022/06/23 11:41:42;;;;;;;4.70;2.78;;;25.00;99.90;;;;;;4979909;28;20113;-69
2022/06/23 11:44:27;;;;;;;4.28;2.60;;;25.10;99.90;;;;;;4991987;28;20073;-69
2022/06/23 11:47:06;;;;;;;6.15;3.03;;;24.70;99.90;;;;;;4980591;28;20457;-68
2022/06/23 11:49:38;;;;;;;5.80;3.08;;;24.60;99.90;;;;;;4983054;28;20118;-69
2022/06/23 11:52:28;;;;;;;4.43;2.83;;;23.90;99.90;;;;;;4983753;28;20038;-68
2022/06/23 11:55:07;;;;;;;7.28;2.70;;;23.40;99.90;;;;;;4983830;28;20039;-68
2022/06/23 11:57:38;;;;;;;6.45;2.67;;;23.00;99.90;;;;;;4983776;28;20474;-68
2022/06/23 12:00:41;;;;;;;8.60;3.08;;;23.20;99.90;;;;;;4983895;28;20096;-69
2022/06/23 12:03:40;;;;;;;5.78;2.83;;;23.50;99.90;;;;;;4904854;28;20426;-69
2022/06/23 12:06:11;;;;;;;5.93;2.60;;;24.20;99.90;;;;;;4904660;29;20066;-69
2022/06/23 12:08:46;;;;;;;4.30;2.63;;;24.70;99.90;;;;;;4915658;29;20036;-69
2022/06/23 12:11:12;;;;;;;5.13;2.72;;;24.90;99.90;;;;;;4900491;29;20045;-70
2022/06/23 12:13:39;;;;;;;5.53;2.45;;;25.60;99.90;;;;;;4903532;29;20544;-70
2022/06/23 12:16:05;;;;;;;5.13;2.63;;;25.60;99.90;;;;;;4904384;29;20104;-69
2022/06/23 12:18:52;;;;;;;3.40;2.47;;;25.20;99.90;;;;;;4904525;29;20067;-69
2022/06/23 12:21:44;;;;;;;4.93;2.88;;;25.10;99.90;;;;;;4902177;29;20508;-68
2022/06/23 12:24:12;;;;;;;7.40;2.75;;;25.00;99.90;;;;;;4906451;29;20120;-69
2022/06/23 12:26:49;;;;;;;4.50;2.33;;;25.30;99.90;;;;;;4900898;29;20494;-69
2022/06/23 12:29:43;;;;;;;7.10;2.60;;;25.50;99.90;;;;;;4900165;29;20029;-69
2022/06/23 12:32:13;;;;;;;;;;;25.60;99.90;;;;;;4912688;29;20465;-68
2022/06/23 12:34:44;;;;;;;3.95;2.33;;;25.30;99.90;;;;;;4903371;29;19915;-68
2022/06/23 12:37:17;;;;;;;5.05;2.45;;;25.60;99.90;;;;;;4904778;29;20064;-68
2022/06/23 12:40:12;;;;;;;5.88;2.50;;;25.40;99.90;;;;;;4955352;28;20038;-68
2022/06/23 12:42:52;;;;;;;5.97;2.55;;;25.60;99.90;;;;;;4929398;29;20045;-68
2022/06/23 12:45:36;;;;;;;2.60;2.03;;;25.40;99.90;;;;;;4929521;29;20393;-68
2022/06/23 12:48:49;;;;;;;7.55;2.80;;;25.30;99.90;;;;;;4930058;29;20044;-68
2022/06/23 12:51:39;;;;;;;5.63;2.55;;;25.40;99.90;;;;;;4933875;29;20215;-68
2022/06/23 12:54:25;;;;;;;4.30;2.53;;;25.60;99.90;;;;;;4929853;29;20044;-68
2022/06/23 12:57:12;;;;;;;3.45;2.25;;;25.70;99.90;;;;;;4920400;29;20094;-68
2022/06/23 12:59:41;;;;;;;4.95;2.35;;;25.40;99.90;;;;;;4933436;29;20382;-67
2022/06/23 13:02:21;;;;;;;5.20;2.28;;;25.10;99.90;;;;;;4930251;29;20119;-67
2022/06/23 13:05:00;;;;;;;2.65;1.80;;;25.20;99.90;;;;;;4919410;29;20043;-67
2022/06/23 13:07:40;;;;;;;4.05;2.33;;;25.30;99.90;;;;;;4933142;29;20062;-67
2022/06/23 13:10:31;;;;;;;3.65;2.17;;;25.10;99.90;;;;;;4929287;29;20059;-67
2022/06/23 13:13:25;;;;;;;2.83;1.92;;;25.10;99.90;;;;;;4928820;29;20043;-67
2022/06/23 13:16:03;;;;;;;5.18;2.35;;;24.90;99.90;;;;;;4872947;29;20049;-67
2022/06/23 13:18:37;;;;;;;3.47;2.10;;;25.00;99.90;;;;;;4881479;29;20510;-67
2022/06/23 13:21:30;;;;;;;4.00;2.00;;;25.10;99.90;;;;;;4948520;29;20047;-68
2022/06/23 13:24:14;;;;;;;3.33;2.05;;;25.30;99.90;;;;;;4952435;28;20467;-67
2022/06/23 13:26:58;;;;;;;4.90;2.20;;;25.40;99.90;;;;;;4952458;29;20043;-67
2022/06/23 13:30:03;;;;;;;3.28;2.10;;;24.80;99.90;;;;;;4936830;29;20035;-68
2022/06/23 13:33:06;;;;;;;3.85;2.10;;;24.70;99.90;;;;;;4951320;29;20047;-67
2022/06/23 13:35:47;;;;;;;2.05;1.83;;;25.10;99.90;;;;;;4936906;28;20028;-67
2022/06/23 13:38:25;;;;;;;4.43;2.08;;;25.20;99.90;;;;;;4950300;29;20035;-67
2022/06/23 13:41:01;;;;;;;2.67;1.70;;;25.20;99.90;;;;;;4951912;29;20061;-67
2022/06/23 13:43:56;;;;;;;3.00;1.42;;;24.90;99.90;;;;;;4947639;29;20027;-68
2022/06/23 13:46:39;;;;;;;4.20;1.85;;;25.50;99.90;;;;;;4942970;29;20178;-68
2022/06/23 13:49:26;;;;;;;2.70;1.77;;;25.60;99.90;;;;;;4947887;29;20126;-68
2022/06/23 13:52:04;;;;;;;3.20;1.67;;;25.20;99.90;;;;;;4952441;28;20039;-68
2022/06/23 13:54:46;;;;;;;1.55;1.40;;;25.50;99.90;;;;;;4988542;28;20042;-67
2022/06/23 13:57:35;;;;;;;3.78;1.70;;;25.80;99.90;;;;;;4987824;28;20055;-67
2022/06/23 14:00:31;;;;;;;3.70;1.35;;;25.70;99.90;;;;;;4988754;28;20026;-68
2022/06/23 14:03:06;;;;;;;2.00;1.50;;;25.70;99.90;;;;;;4969338;28;20101;-68
2022/06/23 14:05:42;;;;;;;5.45;1.83;;;25.00;99.90;;;;;;4992373;28;20116;-67